createdAt,value
2019-01-15T00:02:20.978Z,1.25
2019-01-15T00:04:52.218Z,1.50
2019-01-15T00:07:23.563Z,1.98
2019-01-15T00:09:54.910Z,1.60
2019-01-15T00:12:26.151Z,1.30
2019-01-15T00:14:57.621Z,1.13
2019-01-15T00:17:28.864Z,0.83
2019-01-15T00:20:00.301Z,1.13
2019-01-15T00:22:31.608Z,1.00
2019-01-15T00:25:02.894Z,1.10
2019-01-15T00:27:34.141Z,1.50
2019-01-15T00:30:07.563Z,0.90
2019-01-15T00:32:38.821Z,1.00
2019-01-15T00:35:10.250Z,1.23
2019-01-15T00:37:41.514Z,1.00
2019-01-15T00:40:15.501Z,0.80
2019-01-15T00:42:46.748Z,1.20
2019-01-15T00:45:18.000Z,1.15
2019-01-15T00:47:49.295Z,1.20
2019-01-15T00:50:20.578Z,1.30
2019-01-15T00:52:51.851Z,1.40
2019-01-15T00:55:23.111Z,1.75
2019-01-15T00:57:54.456Z,1.03
2019-01-15T01:00:26.731Z,1.40
2019-01-15T01:02:57.998Z,1.22
2019-01-15T01:05:29.241Z,1.45
2019-01-15T01:08:00.727Z,1.00
2019-01-15T01:10:31.966Z,1.30
2019-01-15T01:13:03.739Z,1.40
2019-01-15T01:15:35.166Z,1.40
2019-01-15T01:18:06.484Z,1.20
2019-01-15T01:20:37.717Z,1.57
2019-01-15T01:23:08.987Z,1.85
2019-01-15T01:25:40.212Z,1.53
2019-01-15T01:28:11.460Z,1.60
2019-01-15T01:30:42.781Z,1.80
2019-01-15T01:33:14.240Z,1.50
2019-01-15T01:35:45.476Z,1.73
2019-01-15T01:38:16.739Z,1.80
2019-01-15T01:40:48.150Z,1.90
2019-01-15T01:43:19.457Z,1.60
2019-01-15T01:45:50.765Z,1.60
2019-01-15T01:48:22.272Z,1.23
2019-01-15T01:50:53.498Z,1.70
2019-01-15T01:53:24.836Z,1.72
2019-01-15T01:55:56.164Z,1.27
2019-01-15T01:58:27.429Z,1.23
2019-01-15T02:00:58.779Z,2.00
2019-01-15T02:03:30.954Z,1.70
2019-01-15T02:06:02.275Z,1.27
2019-01-15T02:08:33.550Z,1.53
2019-01-15T02:11:04.810Z,2.10
2019-01-15T02:13:36.114Z,1.50
2019-01-15T02:16:07.550Z,1.53
2019-01-15T02:18:38.820Z,1.60
2019-01-15T02:21:10.247Z,1.90
2019-01-15T02:23:41.532Z,1.60
2019-01-15T02:26:12.780Z,1.57
2019-01-15T02:28:45.732Z,1.83
2019-01-15T02:31:16.975Z,2.33
2019-01-15T02:33:48.268Z,1.60
2019-01-15T02:36:19.521Z,1.80
2019-01-15T02:38:50.839Z,1.33
2019-01-15T02:41:22.073Z,1.27
2019-01-15T02:43:53.522Z,1.70
2019-01-15T02:46:24.857Z,1.53
2019-01-15T02:48:57.737Z,2.07
2019-01-15T02:51:29.205Z,1.20
2019-01-15T02:54:00.492Z,1.63
2019-01-15T02:56:31.821Z,3.27
2019-01-15T02:59:03.252Z,1.63
2019-01-15T03:01:34.604Z,2.05
2019-01-15T03:04:05.866Z,2.00
2019-01-15T03:06:37.116Z,1.53
2019-01-15T03:09:09.220Z,1.97
2019-01-15T03:11:40.475Z,1.52
2019-01-15T03:14:11.716Z,2.00
2019-01-15T03:16:43.019Z,1.80
2019-01-15T03:19:14.350Z,1.67
2019-01-15T03:21:45.643Z,2.70
2019-01-15T03:24:16.963Z,1.70
2019-01-15T03:26:48.219Z,1.53
2019-01-15T03:29:19.565Z,1.67
2019-01-15T03:31:51.058Z,1.50
2019-01-15T03:34:22.295Z,1.90
2019-01-15T03:36:53.515Z,2.03
2019-01-15T03:39:24.747Z,2.05
2019-01-15T03:41:56.298Z,1.93
2019-01-15T03:44:27.536Z,1.82
2019-01-15T03:46:58.873Z,1.93
2019-01-15T03:49:30.137Z,2.05
2019-01-15T03:52:01.394Z,2.00
2019-01-15T03:54:32.631Z,1.53
2019-01-15T03:57:03.994Z,1.73
2019-01-15T03:59:35.282Z,2.63
2019-01-15T04:02:06.610Z,1.37
2019-01-15T04:04:39.158Z,2.85
2019-01-15T04:07:10.839Z,1.70
2019-01-15T04:09:42.335Z,2.20
2019-01-15T04:12:14.437Z,1.40
2019-01-15T04:14:45.849Z,2.33
2019-01-15T04:17:17.103Z,1.60
2019-01-15T04:19:48.323Z,2.30
2019-01-15T04:22:19.627Z,1.97
2019-01-15T04:24:50.936Z,1.90
2019-01-15T04:27:22.223Z,2.37
2019-01-15T04:29:54.473Z,1.63
2019-01-15T04:32:25.781Z,1.33
2019-01-15T04:34:57.106Z,1.47
2019-01-15T04:37:28.589Z,1.75
2019-01-15T04:39:59.837Z,1.43
2019-01-15T04:42:31.085Z,2.20
2019-01-15T04:45:02.402Z,2.47
2019-01-15T04:47:33.831Z,1.85
2019-01-15T04:50:07.155Z,2.43
2019-01-15T04:52:39.455Z,1.87
2019-01-15T04:55:11.079Z,1.67
2019-01-15T04:57:42.412Z,2.43
2019-01-15T05:00:16.104Z,2.10
2019-01-15T05:02:47.820Z,4.20
2019-01-15T05:05:21.587Z,2.10
2019-01-15T05:07:52.859Z,2.17
2019-01-15T05:10:24.199Z,2.23
2019-01-15T05:12:55.520Z,4.00
2019-01-15T05:15:26.889Z,2.30
2019-01-15T05:17:58.237Z,2.30
2019-01-15T05:20:29.583Z,2.37
2019-01-15T05:23:00.922Z,2.90
2019-01-15T05:25:32.281Z,4.37
2019-01-15T05:28:03.628Z,2.83
2019-01-15T05:30:34.989Z,1.80
2019-01-15T05:33:06.408Z,2.70
2019-01-15T05:35:37.728Z,2.57
2019-01-15T05:38:09.138Z,2.30
2019-01-15T05:40:41.960Z,2.95
2019-01-15T05:43:13.243Z,3.57
2019-01-15T05:45:47.653Z,3.10
2019-01-15T05:48:25.982Z,2.97
2019-01-15T05:51:19.282Z,3.07
2019-01-15T05:53:50.661Z,3.20
2019-01-15T05:56:21.946Z,2.70
2019-01-15T05:58:53.306Z,2.77
2019-01-15T06:01:24.927Z,2.65
2019-01-15T06:03:56.312Z,2.70
2019-01-15T06:06:27.566Z,2.90
2019-01-15T06:08:58.903Z,3.22
2019-01-15T06:11:30.127Z,2.60
2019-01-15T06:14:01.390Z,2.77
2019-01-15T06:16:34.483Z,4.20
2019-01-15T06:19:05.769Z,2.23
2019-01-15T06:21:37.067Z,2.40
2019-01-15T06:24:08.438Z,3.07
2019-01-15T06:26:39.782Z,2.73
2019-01-15T06:29:11.388Z,2.90
2019-01-15T06:31:42.703Z,3.57
2019-01-15T06:34:14.056Z,2.47
2019-01-15T06:36:45.449Z,3.10
2019-01-15T06:39:16.716Z,2.98
2019-01-15T06:41:48.067Z,3.63
2019-01-15T06:44:19.315Z,3.50
2019-01-15T06:46:50.680Z,3.90
2019-01-15T06:49:22.039Z,3.72
2019-01-15T06:51:53.403Z,2.77
2019-01-15T06:54:24.658Z,4.20
2019-01-15T06:56:55.958Z,6.50
2019-01-15T06:59:27.329Z,4.07
2019-01-15T07:01:58.675Z,6.30
2019-01-15T07:04:30.011Z,7.10
2019-01-15T07:07:02.179Z,5.97
2019-01-15T07:09:33.558Z,6.10
2019-01-15T07:12:04.907Z,7.30
2019-01-15T07:14:36.299Z,3.40
2019-01-15T07:17:07.870Z,4.53
2019-01-15T07:19:39.222Z,4.07
2019-01-15T07:22:10.591Z,3.50
2019-01-15T07:24:41.922Z,3.40
2019-01-15T07:27:13.229Z,3.67
2019-01-15T07:29:44.514Z,3.12
2019-01-15T07:32:15.760Z,3.10
2019-01-15T07:34:47.007Z,3.97
2019-01-15T07:37:18.248Z,3.50
2019-01-15T07:39:49.607Z,3.20
2019-01-15T07:42:20.953Z,3.20
2019-01-15T07:44:52.303Z,2.43
2019-01-15T07:47:23.536Z,3.20
2019-01-15T07:49:54.887Z,3.00
2019-01-15T07:52:26.156Z,3.87
2019-01-15T07:54:57.502Z,3.97
2019-01-15T07:57:31.123Z,3.60
2019-01-15T08:00:02.478Z,4.20
2019-01-15T08:02:33.711Z,3.40
2019-01-15T08:05:05.492Z,3.23
2019-01-15T08:07:36.934Z,2.83
2019-01-15T08:10:10.047Z,3.33
2019-01-15T08:12:41.340Z,2.70
2019-01-15T08:15:15.359Z,2.60
2019-01-15T08:17:46.604Z,3.03
2019-01-15T08:20:17.858Z,2.40
2019-01-15T08:22:49.187Z,2.70
2019-01-15T08:25:20.419Z,3.13
2019-01-15T08:27:51.757Z,3.53
2019-01-15T08:30:25.413Z,2.20
2019-01-15T08:32:56.849Z,2.90
2019-01-15T08:35:28.125Z,3.20
2019-01-15T08:37:59.542Z,3.07
2019-01-15T08:40:30.836Z,2.20
2019-01-15T08:43:02.071Z,3.62
2019-01-15T08:45:33.455Z,3.00
2019-01-15T08:48:16.298Z,3.00
2019-01-15T08:50:49.531Z,2.80
2019-01-15T08:53:23.278Z,2.90
2019-01-15T08:55:58.401Z,2.40
2019-01-15T08:58:29.701Z,3.30
2019-01-15T09:01:01.077Z,3.67
2019-01-15T09:03:33.916Z,3.00
2019-01-15T09:06:05.185Z,3.10
2019-01-15T09:08:36.527Z,4.37
2019-01-15T09:11:07.900Z,4.17
2019-01-15T09:13:39.289Z,3.50
2019-01-15T09:16:10.560Z,3.50
2019-01-15T09:18:41.806Z,3.87
2019-01-15T09:21:13.089Z,3.83
2019-01-15T09:23:44.408Z,4.22
2019-01-15T09:26:15.800Z,3.57
2019-01-15T09:28:47.187Z,3.33
2019-01-15T09:31:18.467Z,3.22
2019-01-15T09:33:49.825Z,2.83
2019-01-15T09:36:21.218Z,3.90
2019-01-15T09:38:54.178Z,3.90
2019-01-15T09:41:25.513Z,3.92
2019-01-15T09:43:56.997Z,4.00
2019-01-15T09:46:28.264Z,4.10
2019-01-15T09:48:59.559Z,3.77
2019-01-15T09:51:30.949Z,4.00
2019-01-15T09:54:02.222Z,3.00
2019-01-15T09:56:33.656Z,4.03
2019-01-15T09:59:05.756Z,3.30
2019-01-15T10:01:37.132Z,3.98
2019-01-15T10:04:10.099Z,4.30
2019-01-15T10:06:41.319Z,3.60
2019-01-15T10:09:12.579Z,3.10
2019-01-15T10:11:43.934Z,3.33
2019-01-15T10:14:15.303Z,3.30
2019-01-15T10:16:46.561Z,4.40
2019-01-15T10:19:17.990Z,4.22
2019-01-15T10:21:50.579Z,3.57
2019-01-15T10:24:21.931Z,3.80
2019-01-15T10:26:54.448Z,3.47
2019-01-15T10:29:27.197Z,3.75
2019-01-15T10:32:36.663Z,3.60
2019-01-15T10:35:23.358Z,3.07
2019-01-15T10:37:54.703Z,4.20
2019-01-15T10:40:26.106Z,2.63
2019-01-15T10:42:59.049Z,2.73
2019-01-15T10:45:32.648Z,2.98
2019-01-15T10:48:04.025Z,3.90
2019-01-15T10:50:35.269Z,2.50
2019-01-15T10:53:06.658Z,5.20
2019-01-15T10:55:37.989Z,3.20
2019-01-15T10:58:09.401Z,7.70
2019-01-15T11:00:40.640Z,4.70
2019-01-15T11:03:12.846Z,5.22
2019-01-15T11:05:44.367Z,3.60
2019-01-15T11:08:15.710Z,3.10
2019-01-15T11:10:48.849Z,2.77
2019-01-15T11:13:20.214Z,2.25
2019-01-15T11:15:51.460Z,2.50
2019-01-15T11:18:22.816Z,2.10
2019-01-15T11:20:54.611Z,2.27
2019-01-15T11:23:25.932Z,2.60
2019-01-15T11:25:57.431Z,3.07
2019-01-15T11:28:28.706Z,2.30
2019-01-15T11:31:00.113Z,3.87
2019-01-15T11:33:33.041Z,3.07
2019-01-15T11:36:04.583Z,2.20
2019-01-15T11:38:35.981Z,1.80
2019-01-15T11:41:07.405Z,3.03
2019-01-15T11:43:39.050Z,2.67
2019-01-15T11:46:10.373Z,1.80
2019-01-15T11:48:41.610Z,3.30
2019-01-15T11:51:12.899Z,3.80
2019-01-15T11:53:44.126Z,3.00
2019-01-15T11:56:15.380Z,3.40
2019-01-15T11:58:47.281Z,3.03
2019-01-15T12:01:37.852Z,3.05
2019-01-15T12:04:27.160Z,3.43
2019-01-15T12:07:36.694Z,2.10
2019-01-15T12:10:32.443Z,2.30
2019-01-15T12:13:32.255Z,2.60
2019-01-15T12:16:18.957Z,2.67
2019-01-15T12:19:15.415Z,2.50
2019-01-15T12:22:04.598Z,2.07
2019-01-15T12:25:07.258Z,2.47
2019-01-15T12:27:56.323Z,2.00
2019-01-15T12:30:48.658Z,2.03
2019-01-15T12:33:37.789Z,2.67
2019-01-15T12:36:43.368Z,2.70
2019-01-15T12:39:32.196Z,1.67
2019-01-15T12:42:35.969Z,2.33
2019-01-15T12:45:35.354Z,2.97
2019-01-15T12:48:34.750Z,3.33
2019-01-15T12:51:34.286Z,2.70
2019-01-15T12:54:28.270Z,2.67
2019-01-15T12:57:22.324Z,2.80
2019-01-15T13:00:29.814Z,2.17
2019-01-15T13:03:18.948Z,2.90
2019-01-15T13:06:08.177Z,2.90
2019-01-15T13:08:58.435Z,2.33
2019-01-15T13:11:54.897Z,2.45
2019-01-15T13:14:58.577Z,2.00
2019-01-15T13:17:46.960Z,1.98
2019-01-15T13:20:36.227Z,1.93
2019-01-15T13:23:35.725Z,2.80
2019-01-15T13:26:26.019Z,2.10
2019-01-15T13:29:34.710Z,2.27
2019-01-15T13:32:33.640Z,2.67
2019-01-15T13:35:22.816Z,3.03
2019-01-15T13:38:03.978Z,2.07
2019-01-15T13:40:53.163Z,2.07
2019-01-15T13:43:48.037Z,2.70
2019-01-15T13:46:37.214Z,1.93
2019-01-15T13:49:30.703Z,1.83
2019-01-15T13:52:19.819Z,1.90
2019-01-15T13:55:19.224Z,2.50
2019-01-15T13:58:21.726Z,2.03
2019-01-15T14:01:10.799Z,1.53
2019-01-15T14:04:13.288Z,2.00
2019-01-15T14:07:02.137Z,2.50
2019-01-15T14:09:52.541Z,1.77
2019-01-15T14:12:51.856Z,1.60
2019-01-15T14:15:48.812Z,2.60
2019-01-15T14:18:40.079Z,2.67
2019-01-15T14:21:36.434Z,1.77
2019-01-15T14:24:35.969Z,1.87
2019-01-15T14:27:35.088Z,1.30
2019-01-15T14:30:29.212Z,1.70
2019-01-15T14:33:31.419Z,1.53
2019-01-15T14:36:20.586Z,2.43
2019-01-15T14:39:09.560Z,1.40
2019-01-15T14:42:02.560Z,1.73
2019-01-15T14:45:01.814Z,1.67
2019-01-15T14:47:49.092Z,1.87
2019-01-15T14:50:31.486Z,1.73
2019-01-15T14:53:22.607Z,1.53
2019-01-15T14:56:05.746Z,2.00
2019-01-15T14:58:54.885Z,1.57
2019-01-15T15:01:40.597Z,1.40
2019-01-15T15:04:43.093Z,1.70
2019-01-15T15:07:33.326Z,1.60
2019-01-15T15:10:24.576Z,1.67
2019-01-15T15:13:14.862Z,1.50
2019-01-15T15:16:05.292Z,1.67
2019-01-15T15:18:52.994Z,1.83
2019-01-15T15:21:52.529Z,1.87
2019-01-15T15:24:53.735Z,1.43
2019-01-15T15:27:43.039Z,1.53
2019-01-15T15:30:34.136Z,1.77
2019-01-15T15:33:33.563Z,1.47
2019-01-15T15:36:31.298Z,1.43
2019-01-15T15:39:32.510Z,1.50
2019-01-15T15:42:23.299Z,2.70
2019-01-15T15:45:13.601Z,2.07
2019-01-15T15:48:20.025Z,1.77
2019-01-15T15:51:25.499Z,1.20
2019-01-15T15:54:07.270Z,2.60
2019-01-15T15:56:57.469Z,1.50
2019-01-15T15:59:46.347Z,1.63
2019-01-15T16:02:35.365Z,1.80
2019-01-15T16:05:19.634Z,1.70
2019-01-15T16:08:12.617Z,1.47
2019-01-15T16:10:55.079Z,1.90
2019-01-15T16:13:53.198Z,1.20
2019-01-15T16:16:42.317Z,1.70
2019-01-15T16:19:38.576Z,1.60
2019-01-15T16:22:31.848Z,2.20
2019-01-15T16:25:14.029Z,2.33
2019-01-15T16:28:02.863Z,1.80
2019-01-15T16:30:45.345Z,1.50
2019-01-15T16:33:38.812Z,1.95
2019-01-15T16:36:32.024Z,1.60
2019-01-15T16:39:20.873Z,1.80
2019-01-15T16:42:23.412Z,1.90
2019-01-15T16:45:31.983Z,2.00
2019-01-15T16:48:21.654Z,2.30
2019-01-15T16:51:21.156Z,2.87
2019-01-15T16:54:17.458Z,2.90
2019-01-15T16:57:06.790Z,2.40
2019-01-15T16:59:53.422Z,1.70
2019-01-15T17:02:46.813Z,3.00
2019-01-15T17:05:49.155Z,2.50
2019-01-15T17:08:44.074Z,1.80
2019-01-15T17:11:35.978Z,2.35
2019-01-15T17:14:27.871Z,2.62
2019-01-15T17:17:17.059Z,2.10
2019-01-15T17:20:04.272Z,2.50
2019-01-15T17:22:54.353Z,1.50
2019-01-15T17:25:44.543Z,2.50
2019-01-15T17:28:33.416Z,2.17
2019-01-15T17:31:22.065Z,2.83
2019-01-15T17:34:15.297Z,2.67
2019-01-15T17:37:04.433Z,2.93
2019-01-15T17:40:00.759Z,2.47
2019-01-15T17:42:49.929Z,2.60
2019-01-15T17:45:33.213Z,2.45
2019-01-15T17:48:26.579Z,2.30
2019-01-15T17:51:20.459Z,3.30
2019-01-15T17:54:22.313Z,3.23
2019-01-15T17:57:15.815Z,3.20
2019-01-15T18:00:18.376Z,4.07
2019-01-15T18:03:11.007Z,4.03
2019-01-15T18:06:19.497Z,13.28
2019-01-15T18:09:15.245Z,4.77
2019-01-15T18:12:04.306Z,4.30
2019-01-15T18:14:52.659Z,5.30
2019-01-15T18:17:41.859Z,4.92
2019-01-15T18:20:32.292Z,4.63
2019-01-15T18:23:37.864Z,5.17
2019-01-15T18:26:30.833Z,4.53
2019-01-15T18:29:12.325Z,5.50
2019-01-15T18:32:05.582Z,6.00
2019-01-15T18:35:05.079Z,6.47
2019-01-15T18:37:55.395Z,5.40
2019-01-15T18:40:44.313Z,5.73
2019-01-15T18:43:33.261Z,5.30
2019-01-15T18:46:22.818Z,5.37
2019-01-15T18:49:25.308Z,5.67
2019-01-15T18:52:14.150Z,6.10
2019-01-15T18:55:13.486Z,5.20
2019-01-15T18:58:10.014Z,5.50
2019-01-15T19:01:03.267Z,5.27
2019-01-15T19:04:06.236Z,5.67
2019-01-15T19:06:59.486Z,6.10
2019-01-15T19:09:56.217Z,6.30
2019-01-15T19:12:45.314Z,8.30
2019-01-15T19:15:40.178Z,5.67
2019-01-15T19:18:29.347Z,5.60
2019-01-15T19:21:25.532Z,6.37
2019-01-15T19:24:15.799Z,12.77
2019-01-15T19:27:01.372Z,5.63
2019-01-15T19:29:50.269Z,6.00
2019-01-15T19:32:49.764Z,7.67
2019-01-15T19:35:38.804Z,5.90
2019-01-15T19:38:35.220Z,5.90
2019-01-15T19:41:24.247Z,5.70
2019-01-15T19:44:16.187Z,5.20
2019-01-15T19:47:10.715Z,6.10
2019-01-15T19:50:07.104Z,6.40
2019-01-15T19:53:04.247Z,5.70
2019-01-15T19:55:57.404Z,6.10
2019-01-15T19:58:54.052Z,6.27
2019-01-15T20:01:43.002Z,6.20
2019-01-15T20:04:32.021Z,5.93
2019-01-15T20:07:34.349Z,5.57
2019-01-15T20:10:39.140Z,6.00
2019-01-15T20:13:29.459Z,5.63
2019-01-15T20:16:11.304Z,5.30
2019-01-15T20:19:01.707Z,6.37
2019-01-15T20:21:54.678Z,6.50
2019-01-15T20:24:45.175Z,6.57
2019-01-15T20:27:34.055Z,6.50
2019-01-15T20:30:29.754Z,5.70
2019-01-15T20:33:25.838Z,5.47
2019-01-15T20:36:34.373Z,6.47
2019-01-15T20:39:23.753Z,5.37
2019-01-15T20:42:20.080Z,5.63
2019-01-15T20:45:08.965Z,6.00
2019-01-15T20:47:54.418Z,4.90
2019-01-15T20:50:43.579Z,4.93
2019-01-15T20:53:39.886Z,4.85
2019-01-15T20:56:38.440Z,5.70
2019-01-15T20:59:24.963Z,5.70
2019-01-15T21:02:21.046Z,4.97
2019-01-15T21:05:29.804Z,4.60
2019-01-15T21:08:20.052Z,5.03
2019-01-15T21:11:08.976Z,4.53
2019-01-15T21:14:02.218Z,5.50
2019-01-15T21:16:51.240Z,4.17
2019-01-15T21:19:44.225Z,5.05
2019-01-15T21:22:27.442Z,4.90
2019-01-15T21:25:23.761Z,4.40
2019-01-15T21:28:13.971Z,4.77
2019-01-15T21:31:02.278Z,4.10
2019-01-15T21:33:47.782Z,3.93
2019-01-15T21:36:30.995Z,4.50
2019-01-15T21:39:15.560Z,5.33
2019-01-15T21:41:59.604Z,3.60
2019-01-15T21:44:44.279Z,4.37
2019-01-15T21:47:40.317Z,3.93
2019-01-15T21:50:29.197Z,4.10
2019-01-15T21:53:28.518Z,3.90
2019-01-15T21:56:21.904Z,5.13
2019-01-15T21:59:18.167Z,4.10
2019-01-15T22:02:23.788Z,4.10
2019-01-15T22:05:16.783Z,4.30
2019-01-15T22:08:05.701Z,4.83
2019-01-15T22:10:55.949Z,3.83
2019-01-15T22:13:49.291Z,3.87
2019-01-15T22:16:38.108Z,4.77
2019-01-15T22:19:30.688Z,3.97
2019-01-15T22:22:19.931Z,4.50
2019-01-15T22:25:16.113Z,4.57
2019-01-15T22:28:05.201Z,4.03
2019-01-15T22:30:54.435Z,4.47
2019-01-15T22:33:42.972Z,4.00
2019-01-15T22:36:27.831Z,4.10
2019-01-15T22:39:14.043Z,4.20
2019-01-15T22:42:10.530Z,3.90
2019-01-15T22:44:52.847Z,4.50
2019-01-15T22:47:43.080Z,3.80
2019-01-15T22:50:38.784Z,3.70
2019-01-15T22:53:47.525Z,3.77
2019-01-15T22:56:32.382Z,3.90
2019-01-15T22:59:21.563Z,4.63
2019-01-15T23:02:14.721Z,4.90
2019-01-15T23:05:14.326Z,4.43
2019-01-15T23:08:07.762Z,4.00
2019-01-15T23:10:56.695Z,4.50
2019-01-15T23:13:40.694Z,4.80
2019-01-15T23:16:27.695Z,3.23
2019-01-15T23:19:16.912Z,4.03
2019-01-15T23:22:05.135Z,4.00
2019-01-15T23:24:54.366Z,3.90
2019-01-15T23:27:53.657Z,3.87
2019-01-15T23:30:39.688Z,4.23
2019-01-15T23:33:33.966Z,3.65
2019-01-15T23:36:27.341Z,3.17
2019-01-15T23:39:17.642Z,4.50
2019-01-15T23:42:03.735Z,4.00
2019-01-15T23:44:47.970Z,3.63
2019-01-15T23:47:36.951Z,3.40
2019-01-15T23:50:31.067Z,3.73
2019-01-15T23:53:20.004Z,3.00
2019-01-15T23:56:10.206Z,3.33
2019-01-15T23:58:54.036Z,3.80
